Terminal Aerodrome Forecast
Issued by NWS

Home | Current Version | Previous Version | Graphics & Text | Print | Product List | Glossary On
Versions: 1 2 3 4 5 6 7 8 9 10 11 12 13 14 15 16 17
000
FTUS43 KABR 181244 AAA
TAFMBG
TAF AMD
KMBG 181244Z 1813/1912 32011KT P6SM BKN250
     FM181400 31017G26KT P6SM BKN250
     FM182300 28008KT P6SM FEW250
     FM190100 25004KT P6SM FEW250
     FM190300 18004KT P6SM FEW250
     FM190800 15008KT P6SM FEW250=

USA.gov is the U.S. government's official web portal to all federal, state and local government web resources and services.